Time;durP1;ratioP1;P1;durP2;ratioP2;P2;SDS_P1;SDS_P2;PMS_P1;PMS_P2;Temp;Humidity;BMP_temperature;BMP_pressure;BME280_temperature;BME280_humidity;BME280_pressure;Samples;Min_cycle;Max_cycle;Signal;HPM_P1;HPM_P2
2022/07/02 00:00:27;;;;;;;;;;;;;;;13.86;82.50;97551.25;30001;983;1862;-58
2022/07/02 00:01:02;;;;;;;;;;;;;;;13.87;82.66;97553.66;30001;986;1858;-57
2022/07/02 00:01:35;;;;;;;;;;;;;;;13.87;82.66;97544.66;30001;983;1875;-56
2022/07/02 00:02:07;;;;;;;;;;;;;;;13.87;82.61;97559.12;30001;983;1880;-56
2022/07/02 00:02:41;;;;;;;;;;;;;;;13.88;82.83;97555.28;30001;983;1875;-56
2022/07/02 00:03:14;;;;;;;;;;;;;;;13.88;82.59;97555.28;30001;983;1880;-57
2022/07/02 00:03:50;;;;;;;;;;;;;;;13.87;82.71;97553.66;30001;983;1875;-58
2022/07/02 00:04:24;;;;;;;;;;;;;;;13.88;82.67;97560.75;30001;983;1880;-57
2022/07/02 00:04:59;;;;;;;;;;;;;;;13.90;82.35;97555.78;30001;983;1862;-60
2022/07/02 00:05:31;;;;;;;;;;;;;;;13.91;82.28;97559.34;30001;982;1871;-57
2022/07/02 00:06:03;;;;;;;;;;;;;;;13.90;82.57;97552.25;30001;982;1876;-57
2022/07/02 00:06:35;;;;;;;;;;;;;;;13.90;82.56;97557.72;30001;982;1880;-57
2022/07/02 00:07:07;;;;;;;;;;;;;;;13.88;82.58;97560.75;30001;982;1876;-57
2022/07/02 00:07:38;;;;;;;;;;;;;;;13.86;82.37;97554.00;30001;983;1879;-59
2022/07/02 00:08:09;;;;;;;;;;;;;;;13.84;82.69;97557.00;30001;983;1862;-56
2022/07/02 00:08:42;;;;;;;;;;;;;;;13.85;82.51;97555.91;30001;983;1871;-58
2022/07/02 00:09:13;;;;;;;;;;;;;;;13.85;82.92;97558.62;30001;983;1875;-57
2022/07/02 00:09:44;;;;;;;;;;;;;;;13.85;82.56;97555.91;30001;983;1880;-57
2022/07/02 00:10:16;;;;;;;;;;;;;;;13.84;82.55;97548.81;30001;962;1796;-58
2022/07/02 00:10:47;;;;;;;;;;;;;;;13.85;82.36;97550.44;30001;983;1880;-57
2022/07/02 00:11:19;;;;;;;;;;;;;;;13.84;82.73;97548.81;30001;983;1875;-58
2022/07/02 00:11:50;;;;;;;;;;;;;;;13.83;82.53;97549.94;30001;983;1880;-58
2022/07/02 00:12:25;;;;;;;;;;;;;;;13.84;82.96;97548.81;30001;965;1880;-57
2022/07/02 00:12:56;;;;;;;;;;;;;;;13.85;82.53;97550.44;30001;982;1871;-57
2022/07/02 00:13:28;;;;;;;;;;;;;;;13.84;82.92;97548.81;30001;982;1876;-57
2022/07/02 00:13:59;;;;;;;;;;;;;;;13.84;82.80;97554.28;30001;982;1880;-57
2022/07/02 00:14:31;;;;;;;;;;;;;;;13.82;82.71;97548.31;30001;982;1863;-58
2022/07/02 00:15:03;;;;;;;;;;;;;;;13.83;82.93;97549.94;30001;982;1858;-60
2022/07/02 00:15:34;;;;;;;;;;;;;;;13.84;83.00;97543.38;30001;983;1876;-57
2022/07/02 00:16:08;;;;;;;;;;;;;;;13.85;82.59;97542.25;30001;983;1879;-58
2022/07/02 00:16:40;;;;;;;;;;;;;;;13.84;82.73;97548.81;30001;983;1875;-58
2022/07/02 00:17:11;;;;;;;;;;;;;;;13.84;82.87;97548.81;30001;983;1880;-58
2022/07/02 00:17:42;;;;;;;;;;;;;;;13.82;82.97;97544.78;30001;983;1876;-57
2022/07/02 00:18:14;;;;;;;;;;;;;;;13.82;82.66;97545.59;30001;961;1902;-58
2022/07/02 00:18:45;;;;;;;;;;;;;;;13.82;83.02;97542.84;30001;983;1875;-56
2022/07/02 00:19:16;;;;;;;;;;;;;;;13.81;82.99;97543.16;30001;983;1880;-57
2022/07/02 00:19:47;;;;;;;;;;;;;;;13.79;82.97;97540.72;30001;983;1876;-58
2022/07/02 00:20:18;;;;;;;;;;;;;;;13.79;83.17;97545.38;30001;985;1867;-57
2022/07/02 00:20:49;;;;;;;;;;;;;;;13.78;83.11;97550.00;30001;982;1867;-57
2022/07/02 00:21:22;;;;;;;;;;;;;;;13.78;83.13;97549.19;30001;982;1880;-60
2022/07/02 00:21:53;;;;;;;;;;;;;;;13.76;82.98;97549.50;30001;982;1863;-61
2022/07/02 00:22:27;;;;;;;;;;;;;;;13.74;82.97;97546.25;30001;982;1872;-60
2022/07/02 00:22:58;;;;;;;;;;;;;;;13.72;83.29;97549.28;30001;983;1875;-61
2022/07/02 00:23:29;;;;;;;;;;;;;;;13.71;83.42;97555.84;30001;983;1866;-61
2022/07/02 00:24:00;;;;;;;;;;;;;;;13.70;83.48;97550.69;30001;983;1853;-58
2022/07/02 00:24:31;;;;;;;;;;;;;;;13.70;83.52;97550.69;30001;983;1880;-57
2022/07/02 00:25:02;;;;;;;;;;;;;;;13.68;83.75;97550.16;30001;983;1875;-58
2022/07/02 00:25:39;;;;;;;;;;;;;;;13.67;83.69;97548.53;30001;983;1867;-60
2022/07/02 00:26:18;;;;;;;;;;;;;;;13.65;83.80;97553.47;30001;983;1866;-57
2022/07/02 00:26:53;;;;;;;;;;;;;;;13.64;83.59;97549.94;30001;961;1903;-57
2022/07/02 00:27:26;;;;;;;;;;;;;;;13.63;83.86;97551.06;30001;983;1876;-57
2022/07/02 00:27:58;;;;;;;;;;;;;;;13.62;83.99;97556.78;30001;982;1880;-58
2022/07/02 00:28:29;;;;;;;;;;;;;;;13.61;84.05;97549.72;30001;982;1876;-57
2022/07/02 00:29:12;;;;;;;;;;;;;;;13.60;83.80;97548.09;30001;982;1880;-59
2022/07/02 00:29:48;;;;;;;;;;;;;;;13.59;84.28;97552.75;30001;982;1876;-56
2022/07/02 00:30:19;;;;;;;;;;;;;;;13.58;84.29;97555.75;30001;983;1866;-57
2022/07/02 00:30:51;;;;;;;;;;;;;;;13.58;84.26;97561.22;30001;983;1853;-60
2022/07/02 00:31:22;;;;;;;;;;;;;;;13.57;84.18;97548.69;30001;983;1880;-62
2022/07/02 00:31:54;;;;;;;;;;;;;;;13.55;84.13;97553.63;30001;983;1862;-56
2022/07/02 00:32:26;;;;;;;;;;;;;;;13.55;84.18;97556.34;30001;983;1871;-60
2022/07/02 00:32:58;;;;;;;;;;;;;;;13.54;84.57;97557.47;30001;983;1875;-61
2022/07/02 00:33:33;;;;;;;;;;;;;;;13.52;84.33;97557.75;30001;983;1880;-61
2022/07/02 00:34:05;;;;;;;;;;;;;;;13.51;84.75;97555.34;30001;983;1875;-55
2022/07/02 00:34:36;;;;;;;;;;;;;;;13.51;84.75;97549.91;30001;982;1880;-57
2022/07/02 00:35:09;;;;;;;;;;;;;;;13.49;85.09;97554.84;30001;982;1862;-62
2022/07/02 00:35:41;;;;;;;;;;;;;;;13.47;85.33;97551.59;30001;982;1858;-57
2022/07/02 00:36:21;;;;;;;;;;;;;;;13.45;85.39;97551.06;30001;982;1876;-57
2022/07/02 00:36:55;;;;;;;;;;;;;;;13.44;85.10;97554.91;30001;982;1867;-57
2022/07/02 00:37:26;;;;;;;;;;;;;;;13.43;85.40;97547.84;30001;982;1867;-61
2022/07/02 00:37:57;;;;;;;;;;;;;;;13.43;85.58;97550.56;30001;983;1880;-63
2022/07/02 00:38:29;;;;;;;;;;;;;;;13.41;85.29;97546.22;30001;983;1862;-57
2022/07/02 00:39:00;;;;;;;;;;;;;;;13.38;85.37;97552.25;30001;983;1871;-56
2022/07/02 00:39:31;;;;;;;;;;;;;;;13.39;85.71;97550.34;30001;983;1875;-61
2022/07/02 00:40:04;;;;;;;;;;;;;;;13.38;85.65;97552.25;30001;963;1843;-61
2022/07/02 00:40:34;;;;;;;;;;;;;;;13.38;85.85;97552.25;30001;983;1875;-61
2022/07/02 00:41:05;;;;;;;;;;;;;;;13.37;85.60;97550.62;30001;983;1880;-57
2022/07/02 00:41:37;;;;;;;;;;;;;;;13.36;85.87;97542.75;30001;961;1884;-57
2022/07/02 00:42:08;;;;;;;;;;;;;;;13.35;85.85;97547.37;30001;982;1871;-62
2022/07/02 00:42:44;;;;;;;;;;;;;;;13.34;85.98;97545.75;30001;982;1876;-57
2022/07/02 00:43:16;;;;;;;;;;;;;;;13.35;85.91;97546.56;30001;982;1868;-61
2022/07/02 00:43:47;;;;;;;;;;;;;;;13.33;86.07;97546.87;30001;982;1867;-57
2022/07/02 00:44:22;;;;;;;;;;;;;;;13.33;86.10;97548.78;30001;982;1881;-57
2022/07/02 00:44:54;;;;;;;;;;;;;;;13.32;86.14;97553.41;30001;982;1863;-62
2022/07/02 00:45:26;;;;;;;;;;;;;;;13.31;86.09;97546.34;30001;983;1871;-62
2022/07/02 00:45:57;;;;;;;;;;;;;;;13.31;86.17;97551.81;30001;983;1875;-56
2022/07/02 00:46:29;;;;;;;;;;;;;;;13.30;86.28;97550.19;30001;983;1880;-57
2022/07/02 00:47:04;;;;;;;;;;;;;;;13.29;87.17;97553.19;30001;983;1876;-57
2022/07/02 00:47:36;;;;;;;;;;;;;;;13.25;87.33;97552.97;30001;983;1880;-62
2022/07/02 00:48:07;;;;;;;;;;;;;;;13.23;87.54;97549.72;30001;983;1862;-56
2022/07/02 00:48:39;;;;;;;;;;;;;;;13.21;87.78;97554.66;30001;983;1871;-57
2022/07/02 00:49:12;;;;;;;;;;;;;;;13.18;88.07;97551.72;30001;983;1862;-62
2022/07/02 00:49:43;;;;;;;;;;;;;;;13.17;87.63;97552.84;30001;982;1871;-62
2022/07/02 00:50:13;;;;;;;;;;;;;;;13.15;87.94;97558.53;30001;982;1876;-57
2022/07/02 00:50:44;;;;;;;;;;;;;;;13.16;87.73;97548.50;30001;982;1867;-62
2022/07/02 00:51:15;;;;;;;;;;;;;;;13.15;88.28;97553.09;30001;982;1867;-61
2022/07/02 00:51:46;;;;;;;;;;;;;;;13.15;88.06;97557.75;30001;982;1880;-62
2022/07/02 00:52:17;;;;;;;;;;;;;;;13.13;88.44;97558.03;30001;982;1876;-58
2022/07/02 00:52:49;;;;;;;;;;;;;;;13.13;88.01;97558.03;30001;965;1897;-57
2022/07/02 00:53:19;;;;;;;;;;;;;;;13.11;88.80;97549.34;30001;983;1875;-62
2022/07/02 00:53:52;;;;;;;;;;;;;;;13.11;88.37;97551.25;30001;983;1880;-57
2022/07/02 00:54:23;;;;;;;;;;;;;;;13.10;88.31;97550.44;30001;983;1862;-62
2022/07/02 00:54:53;;;;;;;;;;;;;;;13.09;88.27;97548.81;30001;983;1871;-56
2022/07/02 00:55:24;;;;;;;;;;;;;;;13.08;88.71;97563.53;30001;983;1875;-56
2022/07/02 00:55:56;;;;;;;;;;;;;;;13.07;88.89;97556.47;30001;983;1880;-57
2022/07/02 00:56:27;;;;;;;;;;;;;;;13.06;88.66;97552.13;30001;983;1876;-57
2022/07/02 00:56:58;;;;;;;;;;;;;;;13.04;88.51;97557.88;30001;983;1880;-57
2022/07/02 00:57:31;;;;;;;;;;;;;;;13.03;88.93;97552.72;30001;982;1876;-62
2022/07/02 00:58:02;;;;;;;;;;;;;;;13.02;88.78;97553.81;30001;982;1880;-57
2022/07/02 00:58:33;;;;;;;;;;;;;;;13.03;88.71;97555.44;30001;982;1863;-62
2022/07/02 00:59:04;;;;;;;;;;;;;;;13.02;88.92;97554.63;30001;982;1871;-56
2022/07/02 00:59:35;;;;;;;;;;;;;;;13.02;88.99;97557.34;30001;982;1876;-57
2022/07/02 01:00:07;;;;;;;;;;;;;;;13.02;89.16;97554.63;30001;982;1880;-60
2022/07/02 01:00:37;;;;;;;;;;;;;;;13.03;88.63;97544.53;30001;983;1876;-56
2022/07/02 01:01:09;;;;;;;;;;;;;;;13.02;88.71;97553.81;30001;983;1866;-61
2022/07/02 01:01:40;;;;;;;;;;;;;;;13.03;88.96;97555.44;30001;983;1866;-57
2022/07/02 01:02:11;;;;;;;;;;;;;;;13.02;88.96;97553.81;30001;983;1880;-57
2022/07/02 01:02:43;;;;;;;;;;;;;;;13.04;88.78;97554.31;30001;983;1862;-57
2022/07/02 01:03:16;;;;;;;;;;;;;;;13.03;88.59;97549.97;30001;983;1872;-57
2022/07/02 01:03:48;;;;;;;;;;;;;;;13.05;88.86;97550.50;30001;983;1876;-55
2022/07/02 01:04:19;;;;;;;;;;;;;;;13.05;88.55;97559.47;30001;983;1880;-57
2022/07/02 01:04:52;;;;;;;;;;;;;;;13.06;88.80;97554.84;30001;982;1863;-57
2022/07/02 01:05:23;;;;;;;;;;;;;;;13.06;88.80;97550.22;30001;982;1871;-57
2022/07/02 01:05:56;;;;;;;;;;;;;;;13.06;88.56;97549.41;30001;982;1876;-57
2022/07/02 01:06:27;;;;;;;;;;;;;;;13.09;88.36;97551.53;30001;982;1880;-57
2022/07/02 01:07:01;;;;;;;;;;;;;;;13.08;88.33;97547.19;30001;982;1876;-57
2022/07/02 01:07:33;;;;;;;;;;;;;;;13.09;88.22;97546.09;30001;983;1879;-58
2022/07/02 01:10:40;;;;;;;;;;;;;;;13.16;88.21;97538.41;30001;983;1867;-57
2022/07/02 01:11:12;;;;;;;;;;;;;;;13.18;88.20;97543.53;30001;983;1867;-57
2022/07/02 01:11:44;;;;;;;;;;;;;;;13.20;88.01;97547.59;30001;983;1867;-57
2022/07/02 01:12:16;;;;;;;;;;;;;;;13.21;88.01;97541.03;30001;982;1867;-57
2022/07/02 01:12:50;;;;;;;;;;;;;;;13.22;87.68;97542.66;30001;982;1880;-57
2022/07/02 01:13:21;;;;;;;;;;;;;;;13.25;87.89;97533.09;30001;982;1876;-57
2022/07/02 01:13:54;;;;;;;;;;;;;;;13.25;87.62;97544.78;30001;982;1880;-57
2022/07/02 01:14:25;;;;;;;;;;;;;;;13.26;87.83;97540.97;30001;982;1876;-61
2022/07/02 01:14:57;;;;;;;;;;;;;;;13.29;87.52;97537.66;30001;983;1880;-57
2022/07/02 01:15:27;;;;;;;;;;;;;;;13.29;87.54;97537.66;30001;983;1876;-58
2022/07/02 01:15:59;;;;;;;;;;;;;;;13.30;87.31;97544.72;30001;983;1879;-57
2022/07/02 01:16:30;;;;;;;;;;;;;;;13.30;87.21;97542.00;30001;983;1862;-57
2022/07/02 01:17:02;;;;;;;;;;;;;;;13.31;87.18;97546.34;30002;776;1014;-57
2022/07/02 01:17:33;;;;;;;;;;;;;;;13.32;87.56;97537.06;30001;983;1876;-58
2022/07/02 01:18:04;;;;;;;;;;;;;;;13.33;87.14;97544.13;30001;983;1880;-57
2022/07/02 01:18:37;;;;;;;;;;;;;;;13.34;87.21;97544.94;30001;983;1875;-57
2022/07/02 01:19:10;;;;;;;;;;;;;;;13.33;87.76;97538.69;30001;983;1867;-56
2022/07/02 01:19:41;;;;;;;;;;;;;;;13.32;87.64;97537.06;30001;982;1867;-57
2022/07/02 01:20:11;;;;;;;;;;;;;;;13.32;87.56;97542.53;30001;982;1880;-56
2022/07/02 01:20:42;;;;;;;;;;;;;;;13.32;87.63;97537.06;30001;982;1876;-56
2022/07/02 01:21:13;;;;;;;;;;;;;;;13.33;87.60;97540.59;30001;982;1880;-58
2022/07/02 01:22:02;;;;;;;;;;;;;;;13.31;87.89;97540.91;30001;982;1876;-57
2022/07/02 01:22:35;;;;;;;;;;;;;;;13.31;87.72;97535.44;30001;983;1871;-56
2022/07/02 01:23:06;;;;;;;;;;;;;;;13.32;87.66;97536.25;30001;983;1875;-56
2022/07/02 01:23:37;;;;;;;;;;;;;;;13.32;87.42;97530.81;30001;983;1879;-56
2022/07/02 01:24:08;;;;;;;;;;;;;;;13.32;87.74;97531.63;30001;983;1875;-57
2022/07/02 01:24:39;;;;;;;;;;;;;;;13.32;87.61;97533.53;30001;983;1867;-57
2022/07/02 01:25:10;;;;;;;;;;;;;;;13.31;87.63;97532.72;30001;983;1867;-57
2022/07/02 01:25:48;;;;;;;;;;;;;;;13.31;87.34;97535.44;30001;983;1880;-56
2022/07/02 01:26:18;;;;;;;;;;;;;;;13.32;87.60;97537.06;30001;983;1875;-57
2022/07/02 01:26:49;;;;;;;;;;;;;;;13.33;87.30;97537.88;30001;983;1880;-60
2022/07/02 01:27:21;;;;;;;;;;;;;;;13.32;87.36;97537.06;30001;982;1775;-57
2022/07/02 01:27:52;;;;;;;;;;;;;;;13.32;87.35;97542.53;30001;982;1880;-56
2022/07/02 01:28:23;;;;;;;;;;;;;;;13.31;87.54;97540.91;30001;982;1876;-58
2022/07/02 01:28:53;;;;;;;;;;;;;;;13.32;87.17;97537.06;30001;982;1880;-57
2022/07/02 01:29:24;;;;;;;;;;;;;;;13.33;87.41;97535.16;30001;982;1876;-58
2022/07/02 01:29:55;;;;;;;;;;;;;;;13.32;87.40;97531.63;30001;983;1866;-57
2022/07/02 01:30:26;;;;;;;;;;;;;;;13.32;87.38;97534.34;30001;983;1866;-57
2022/07/02 01:30:58;;;;;;;;;;;;;;;13.32;87.09;97537.06;30001;983;1880;-57
2022/07/02 01:31:29;;;;;;;;;;;;;;;13.32;87.39;97537.06;30001;983;1875;-57
2022/07/02 01:32:00;;;;;;;;;;;;;;;13.31;87.42;97532.72;30001;983;1867;-57
2022/07/02 01:32:30;;;;;;;;;;;;;;;13.31;87.47;97531.91;30001;983;1867;-57
2022/07/02 01:33:01;;;;;;;;;;;;;;;13.32;87.15;97531.63;30001;983;1880;-57
2022/07/02 01:33:32;;;;;;;;;;;;;;;13.32;87.53;97533.53;30001;983;1875;-56
2022/07/02 01:34:03;;;;;;;;;;;;;;;13.33;87.37;97533.25;30001;982;1880;-62
2022/07/02 01:34:39;;;;;;;;;;;;;;;13.33;87.35;97532.44;30001;982;1876;-57
2022/07/02 01:35:10;;;;;;;;;;;;;;;13.33;87.01;97538.69;30001;982;1880;-56
2022/07/02 01:35:41;;;;;;;;;;;;;;;13.33;87.08;97538.69;30001;982;1863;-57
2022/07/02 01:36:15;;;;;;;;;;;;;;;13.32;87.13;97525.34;30001;982;1871;-58
2022/07/02 01:36:50;;;;;;;;;;;;;;;13.31;87.37;97535.44;30001;982;1877;-58
2022/07/02 01:37:22;;;;;;;;;;;;;;;13.31;87.14;97531.91;30001;983;1880;-57
2022/07/02 01:37:53;;;;;;;;;;;;;;;13.31;87.35;97527.28;30001;983;1875;-57
2022/07/02 01:38:24;;;;;;;;;;;;;;;13.30;87.31;97536.56;30001;983;1880;-57
2022/07/02 01:38:54;;;;;;;;;;;;;;;13.29;87.76;97532.19;30001;983;1875;-56
2022/07/02 01:39:25;;;;;;;;;;;;;;;13.29;87.58;97531.37;30001;983;1880;-56
2022/07/02 01:39:56;;;;;;;;;;;;;;;13.28;87.97;97527.03;30001;983;1876;-57
2022/07/02 01:40:27;;;;;;;;;;;;;;;13.25;88.25;97531.16;30001;983;1880;-56
2022/07/02 01:41:38;;;;;;;;;;;;;;;13.25;88.33;97530.34;30001;983;1862;-57
2022/07/02 01:41:49;;;;;;;;;;;;;;;13.22;88.45;97526.31;30001;982;1871;-57
2022/07/02 01:42:20;;;;;;;;;;;;;;;13.20;88.76;97531.22;30001;982;1876;-56
2022/07/02 01:42:51;;;;;;;;;;;;;;;13.19;88.44;97537.78;30001;982;1880;-57
2022/07/02 01:43:22;;;;;;;;;;;;;;;13.17;88.82;97534.53;30001;982;1876;-57
2022/07/02 01:43:53;;;;;;;;;;;;;;;13.16;88.84;97537.59;30001;971;1900;-57
2022/07/02 01:44:25;;;;;;;;;;;;;;;13.13;89.06;97535.41;30001;982;1876;-57
2022/07/02 01:44:56;;;;;;;;;;;;;;;13.11;88.90;97524.81;30001;983;1880;-57
2022/07/02 01:45:27;;;;;;;;;;;;;;;13.10;89.44;97539.53;30001;983;1862;-57
2022/07/02 01:45:58;;;;;;;;;;;;;;;13.09;89.09;97532.47;30001;983;1871;-57
2022/07/02 01:46:29;;;;;;;;;;;;;;;13.09;89.20;97537.91;30001;983;1862;-57
2022/07/02 01:47:04;;;;;;;;;;;;;;;13.10;88.71;97534.09;30001;983;1871;-57
2022/07/02 01:47:37;;;;;;;;;;;;;;;13.08;89.03;97530.84;30001;983;1875;-57
2022/07/02 01:48:07;;;;;;;;;;;;;;;13.07;89.14;97524.59;30001;983;1880;-58
2022/07/02 01:48:38;;;;;;;;;;;;;;;13.07;89.24;97523.78;30001;983;1876;-57
2022/07/02 01:49:15;;;;;;;;;;;;;;;13.06;88.92;97528.41;30001;982;1880;-57
2022/07/02 01:49:45;;;;;;;;;;;;;;;13.05;89.20;97531.44;30001;982;1876;-56
2022/07/02 01:50:17;;;;;;;;;;;;;;;13.04;88.87;97529.81;30001;982;1880;-57
2022/07/02 01:50:48;;;;;;;;;;;;;;;13.03;89.05;97529.00;30001;982;1876;-56
2022/07/02 01:51:19;;;;;;;;;;;;;;;13.03;89.17;97531.72;30001;982;1867;-57
2022/07/02 01:51:50;;;;;;;;;;;;;;;13.03;88.96;97530.91;30001;982;1867;-58
2022/07/02 01:52:20;;;;;;;;;;;;;;;13.02;88.84;97532.81;30001;982;1880;-56
2022/07/02 01:52:51;;;;;;;;;;;;;;;13.01;89.18;97530.38;30001;983;1875;-62
2022/07/02 01:53:22;;;;;;;;;;;;;;;13.01;89.29;97528.47;30001;983;1880;-57
2022/07/02 01:53:56;;;;;;;;;;;;;;;12.99;89.42;97527.16;30001;983;1875;-57
2022/07/02 01:54:27;;;;;;;;;;;;;;;12.98;89.34;97531.78;30001;984;1871;-58
2022/07/02 01:54:58;;;;;;;;;;;;;;;12.96;89.62;97527.72;30001;983;1880;-58
2022/07/02 01:55:29;;;;;;;;;;;;;;;12.95;89.53;97529.66;30001;983;1875;-60
2022/07/02 01:56:00;;;;;;;;;;;;;;;12.95;89.51;97529.66;30001;983;1880;-57
2022/07/02 01:56:32;;;;;;;;;;;;;;;12.94;89.70;97528.03;30001;983;1862;-58
2022/07/02 01:57:03;;;;;;;;;;;;;;;12.94;89.70;97527.22;30001;982;1872;-58
2022/07/02 01:57:35;;;;;;;;;;;;;;;12.93;89.50;97528.31;30001;982;1876;-58
2022/07/02 01:58:06;;;;;;;;;;;;;;;12.93;89.73;97528.31;30001;982;1880;-58
2022/07/02 01:58:37;;;;;;;;;;;;;;;12.92;89.36;97530.22;30001;982;1876;-58
2022/07/02 01:59:08;;;;;;;;;;;;;;;12.93;89.68;97528.31;30001;982;1880;-57
2022/07/02 01:59:39;;;;;;;;;;;;;;;12.94;89.34;97533.47;30001;982;1876;-57
2022/07/02 02:00:12;;;;;;;;;;;;;;;12.94;89.57;97538.09;30001;983;1880;-56
2022/07/02 02:00:42;;;;;;;;;;;;;;;12.95;89.26;97537.00;30001;983;1875;-57
2022/07/02 02:01:13;;;;;;;;;;;;;;;12.95;89.38;97531.56;30001;963;1900;-62
2022/07/02 02:01:46;;;;;;;;;;;;;;;12.95;89.65;97534.28;30001;966;1888;-63
2022/07/02 02:02:17;;;;;;;;;;;;;;;12.97;89.33;97534.81;30001;983;1871;-62
2022/07/02 02:02:50;;;;;;;;;;;;;;;12.98;89.19;97536.41;30001;983;1875;-58
2022/07/02 02:03:21;;;;;;;;;;;;;;;12.97;89.13;97534.81;30001;983;1880;-62
2022/07/02 02:03:52;;;;;;;;;;;;;;;12.98;88.99;97536.41;30001;964;1895;-56
2022/07/02 02:04:23;;;;;;;;;;;;;;;13.00;88.89;97534.22;30001;982;1880;-57
2022/07/02 02:04:54;;;;;;;;;;;;;;;13.01;89.09;97535.84;30001;982;1876;-58
2022/07/02 02:05:25;;;;;;;;;;;;;;;13.01;88.75;97531.19;30001;982;1880;-58
2022/07/02 02:05:55;;;;;;;;;;;;;;;13.03;88.43;97534.44;30001;982;1876;-61
2022/07/02 02:06:27;;;;;;;;;;;;;;;13.03;88.62;97533.63;30001;982;1880;-58
2022/07/02 02:06:59;;;;;;;;;;;;;;;13.04;88.30;97535.25;30001;983;1862;-62
2022/07/02 02:07:31;;;;;;;;;;;;;;;13.03;88.56;97533.63;30001;963;1891;-63
2022/07/02 02:08:02;;;;;;;;;;;;;;;13.02;88.23;97532.00;30001;983;1875;-57
2022/07/02 02:08:33;;;;;;;;;;;;;;;13.01;88.59;97539.37;30001;983;1880;-62
2022/07/02 02:09:04;;;;;;;;;;;;;;;13.02;88.73;97540.19;30001;983;1875;-62
2022/07/02 02:09:35;;;;;;;;;;;;;;;13.00;88.84;97534.22;30001;983;1880;-57
2022/07/02 02:10:07;;;;;;;;;;;;;;;13.00;88.97;97540.47;30001;983;1875;-55
2022/07/02 02:10:37;;;;;;;;;;;;;;;12.99;89.20;97540.78;30001;983;1880;-56
2022/07/02 02:11:08;;;;;;;;;;;;;;;13.00;89.43;97534.22;30001;983;1876;-63
2022/07/02 02:11:39;;;;;;;;;;;;;;;12.98;89.28;97541.88;30001;983;1880;-61
2022/07/02 02:12:13;;;;;;;;;;;;;;;12.96;89.39;97533.19;30001;982;1863;-56
2022/07/02 02:12:44;;;;;;;;;;;;;;;12.96;89.11;97539.44;30001;982;1859;-62
2022/07/02 02:13:15;;;;;;;;;;;;;;;12.95;89.24;97542.44;30001;982;1876;-61
2022/07/02 02:13:46;;;;;;;;;;;;;;;12.94;89.48;97541.63;30001;982;1880;-62
2022/07/02 02:14:21;;;;;;;;;;;;;;;12.94;89.22;97546.28;30001;987;1875;-62
2022/07/02 02:14:52;;;;;;;;;;;;;;;12.90;89.43;97535.16;30001;983;1879;-57
2022/07/02 02:15:22;;;;;;;;;;;;;;;12.87;89.52;97543.09;30001;983;1875;-57
2022/07/02 02:15:53;;;;;;;;;;;;;;;12.85;89.86;97545.28;30001;983;1880;-57
2022/07/02 02:16:27;;;;;;;;;;;;;;;12.82;90.26;97543.19;30001;983;1875;-62
2022/07/02 02:17:00;;;;;;;;;;;;;;;12.80;90.44;97543.47;30001;983;1880;-57
2022/07/02 02:17:31;;;;;;;;;;;;;;;12.83;89.92;97539.31;30001;983;1876;-62
2022/07/02 02:18:03;;;;;;;;;;;;;;;12.87;89.78;97540.38;30001;983;1867;-57
2022/07/02 02:18:34;;;;;;;;;;;;;;;12.90;89.40;97539.78;30001;983;1867;-61
2022/07/02 02:19:06;;;;;;;;;;;;;;;12.94;89.13;97540.81;30001;983;1880;-57
2022/07/02 02:19:37;;;;;;;;;;;;;;;12.97;88.80;97540.25;30001;982;1876;-57
2022/07/02 02:20:09;;;;;;;;;;;;;;;13.00;88.94;97539.66;30001;982;1880;-57
2022/07/02 02:20:40;;;;;;;;;;;;;;;13.04;88.67;97537.97;30001;982;1876;-61
2022/07/02 02:21:10;;;;;;;;;;;;;;;13.03;88.37;97539.91;30001;982;1788;-57
2022/07/02 02:21:41;;;;;;;;;;;;;;;13.04;88.08;97532.53;30001;982;1876;-61
2022/07/02 02:22:12;;;;;;;;;;;;;;;13.05;88.13;97531.44;30001;983;1879;-58
2022/07/02 02:22:43;;;;;;;;;;;;;;;13.04;88.26;97537.97;30001;983;1862;-57
2022/07/02 02:23:14;;;;;;;;;;;;;;;13.04;88.24;97529.81;30001;983;1871;-55
2022/07/02 02:23:48;;;;;;;;;;;;;;;13.05;88.08;97542.31;30001;983;1875;-63
2022/07/02 02:24:19;;;;;;;;;;;;;;;13.03;88.15;97539.09;30001;983;1867;-61
2022/07/02 02:24:52;;;;;;;;;;;;;;;13.02;88.47;97534.75;30001;983;1853;-60
2022/07/02 02:25:22;;;;;;;;;;;;;;;13.00;88.55;97535.03;30001;966;1904;-57
2022/07/02 02:25:53;;;;;;;;;;;;;;;13.00;88.24;97536.94;30001;983;1875;-60
2022/07/02 02:26:25;;;;;;;;;;;;;;;12.99;88.36;97538.03;30001;983;1880;-62
2022/07/02 02:26:55;;;;;;;;;;;;;;;12.98;88.26;97530.97;30001;982;1876;-58
2022/07/02 02:27:26;;;;;;;;;;;;;;;12.97;88.72;97530.16;30001;982;1880;-63
2022/07/02 02:27:58;;;;;;;;;;;;;;;12.96;88.79;97533.19;30001;982;1863;-57
2022/07/02 02:28:29;;;;;;;;;;;;;;;12.95;89.22;97531.56;30001;982;1872;-62
2022/07/02 02:28:59;;;;;;;;;;;;;;;12.94;88.99;97529.94;30001;982;1876;-57
2022/07/02 02:29:30;;;;;;;;;;;;;;;12.92;89.54;97537.59;30001;983;1866;-56
2022/07/02 02:30:01;;;;;;;;;;;;;;;12.90;89.59;97535.16;30001;983;1866;-57
2022/07/02 02:30:32;;;;;;;;;;;;;;;12.88;89.93;97533.81;30001;983;1880;-58
2022/07/02 02:31:03;;;;;;;;;;;;;;;12.86;89.87;97528.66;30001;983;1875;-57
2022/07/02 02:31:34;;;;;;;;;;;;;;;12.87;90.14;97529.47;30001;983;1880;-61
2022/07/02 02:32:05;;;;;;;;;;;;;;;12.86;89.95;97533.31;30001;983;1875;-56
2022/07/02 02:32:37;;;;;;;;;;;;;;;12.84;90.42;97530.06;30001;983;1880;-61
2022/07/02 02:33:08;;;;;;;;;;;;;;;12.83;90.28;97531.16;30001;983;1876;-62
2022/07/02 02:33:40;;;;;;;;;;;;;;;12.81;90.55;97536.94;30001;982;1880;-58
2022/07/02 02:34:12;;;;;;;;;;;;;;;12.81;90.43;97523.31;30001;982;1876;-63
2022/07/02 02:34:43;;;;;;;;;;;;;;;12.82;90.17;97527.62;30001;982;1867;-63
2022/07/02 02:35:13;;;;;;;;;;;;;;;12.82;90.14;97526.84;30001;982;1867;-61
2022/07/02 02:35:44;;;;;;;;;;;;;;;12.83;90.22;97528.44;30001;982;1880;-56
2022/07/02 02:36:16;;;;;;;;;;;;;;;12.82;90.08;97532.28;30001;982;1863;-56
2022/07/02 02:36:47;;;;;;;;;;;;;;;12.82;90.08;97522.19;30001;982;1872;-61
2022/07/02 02:37:18;;;;;;;;;;;;;;;12.83;89.95;97526.53;30001;983;1875;-56
2022/07/02 02:37:49;;;;;;;;;;;;;;;12.83;90.00;97523.81;30001;983;1880;-60
2022/07/02 02:38:19;;;;;;;;;;;;;;;12.85;89.85;97526.22;30001;983;1875;-62
2022/07/02 02:38:52;;;;;;;;;;;;;;;12.85;89.74;97537.94;30001;983;1880;-62
2022/07/02 02:39:23;;;;;;;;;;;;;;;12.86;89.36;97527.84;30001;983;1875;-57
2022/07/02 02:39:53;;;;;;;;;;;;;;;12.83;89.38;97520.25;30001;983;1880;-58
2022/07/02 02:40:24;;;;;;;;;;;;;;;12.84;89.40;97524.59;30001;983;1876;-57
2022/07/02 02:40:55;;;;;;;;;;;;;;;12.82;89.73;97532.28;30001;983;1880;-57
2022/07/02 02:41:26;;;;;;;;;;;;;;;12.83;89.72;97523.00;30001;985;1862;-61
2022/07/02 02:42:00;;;;;;;;;;;;;;;12.82;89.79;97526.84;30001;982;1871;-57
2022/07/02 02:42:31;;;;;;;;;;;;;;;12.81;89.72;97520.59;30001;982;1876;-57
2022/07/02 02:43:02;;;;;;;;;;;;;;;12.81;89.70;97523.31;30001;982;1880;-56
2022/07/02 02:43:34;;;;;;;;;;;;;;;12.82;89.33;97526.84;30001;982;1876;-62
2022/07/02 02:44:04;;;;;;;;;;;;;;;12.82;89.46;97529.56;30001;982;1881;-64
2022/07/02 02:44:35;;;;;;;;;;;;;;;12.82;89.65;97526.84;30001;983;1875;-62
2022/07/02 02:45:07;;;;;;;;;;;;;;;12.80;89.64;97523.59;30001;983;1879;-58
2022/07/02 02:45:38;;;;;;;;;;;;;;;12.81;89.61;97526.03;30001;983;1875;-57
2022/07/02 02:46:09;;;;;;;;;;;;;;;12.82;89.67;97522.19;30001;983;1880;-57
2022/07/02 02:46:40;;;;;;;;;;;;;;;12.82;89.70;97518.66;30001;983;1862;-62
2022/07/02 02:47:11;;;;;;;;;;;;;;;12.82;89.56;97526.84;30001;983;1871;-61
2022/07/02 02:47:41;;;;;;;;;;;;;;;12.84;89.29;97524.59;30001;983;1875;-57
2022/07/02 02:48:12;;;;;;;;;;;;;;;12.85;89.42;97526.22;30001;983;1880;-61
2022/07/02 02:48:44;;;;;;;;;;;;;;;12.85;89.05;97524.31;30001;978;1890;-57
2022/07/02 02:49:14;;;;;;;;;;;;;;;12.86;89.29;97533.31;30001;982;1880;-57
2022/07/02 02:49:45;;;;;;;;;;;;;;;12.86;89.37;97522.41;30001;965;1809;-57
2022/07/02 02:50:17;;;;;;;;;;;;;;;12.86;89.01;97519.69;30001;982;1880;-57
2022/07/02 02:50:48;;;;;;;;;;;;;;;12.86;88.93;97528.66;30001;982;1876;-57
2022/07/02 02:51:19;;;;;;;;;;;;;;;12.89;88.92;97527.28;30001;982;1880;-57
2022/07/02 02:51:50;;;;;;;;;;;;;;;12.91;88.77;97528.59;30001;982;1863;-58
2022/07/02 02:52:23;;;;;;;;;;;;;;;12.91;88.86;97528.59;30001;983;1871;-58
2022/07/02 02:52:53;;;;;;;;;;;;;;;12.91;88.53;97525.88;30001;983;1875;-61